sensor_id;sensor_type;location;lat;lon;timestamp;P1;durP1;ratioP1;P2;durP2;ratioP2
14040;SDS011;7095;51.388;6.196;2022-10-28T00:01:24;17.13;;;7.27;;
14040;SDS011;7095;51.388;6.196;2022-10-28T00:03:54;15.20;;;6.80;;
14040;SDS011;7095;51.388;6.196;2022-10-28T00:06:24;16.30;;;6.50;;
14040;SDS011;7095;51.388;6.196;2022-10-28T00:08:55;14.47;;;6.63;;
14040;SDS011;7095;51.388;6.196;2022-10-28T00:11:24;22.20;;;7.53;;
14040;SDS011;7095;51.388;6.196;2022-10-28T00:13:53;20.20;;;7.00;;
14040;SDS011;7095;51.388;6.196;2022-10-28T00:16:24;14.87;;;7.43;;
14040;SDS011;7095;51.388;6.196;2022-10-28T00:18:54;13.90;;;7.00;;
14040;SDS011;7095;51.388;6.196;2022-10-28T00:21:25;20.40;;;7.87;;
14040;SDS011;7095;51.388;6.196;2022-10-28T00:23:59;14.37;;;7.53;;
14040;SDS011;7095;51.388;6.196;2022-10-28T00:26:28;21.93;;;7.53;;
14040;SDS011;7095;51.388;6.196;2022-10-28T00:29:00;21.20;;;7.27;;
14040;SDS011;7095;51.388;6.196;2022-10-28T00:31:31;14.70;;;6.57;;
14040;SDS011;7095;51.388;6.196;2022-10-28T00:34:01;13.10;;;6.23;;
14040;SDS011;7095;51.388;6.196;2022-10-28T00:36:31;20.23;;;7.10;;
14040;SDS011;7095;51.388;6.196;2022-10-28T00:39:03;19.90;;;7.10;;
14040;SDS011;7095;51.388;6.196;2022-10-28T00:41:37;14.43;;;6.93;;
14040;SDS011;7095;51.388;6.196;2022-10-28T00:47:22;11.17;;;6.90;;
14040;SDS011;7095;51.388;6.196;2022-10-28T00:50:00;19.80;;;7.57;;
14040;SDS011;7095;51.388;6.196;2022-10-28T00:52:34;15.60;;;6.53;;
14040;SDS011;7095;51.388;6.196;2022-10-28T00:55:05;14.93;;;6.87;;
14040;SDS011;7095;51.388;6.196;2022-10-28T00:57:35;15.50;;;6.50;;
14040;SDS011;7095;51.388;6.196;2022-10-28T01:00:06;21.03;;;7.27;;
14040;SDS011;7095;51.388;6.196;2022-10-28T01:02:36;16.27;;;7.10;;
14040;SDS011;7095;51.388;6.196;2022-10-28T01:05:11;19.70;;;7.80;;
14040;SDS011;7095;51.388;6.196;2022-10-28T01:07:42;18.57;;;7.40;;
14040;SDS011;7095;51.388;6.196;2022-10-28T01:10:13;19.80;;;8.07;;
14040;SDS011;7095;51.388;6.196;2022-10-28T01:12:47;17.70;;;7.63;;
14040;SDS011;7095;51.388;6.196;2022-10-28T01:15:26;15.17;;;6.80;;
14040;SDS011;7095;51.388;6.196;2022-10-28T01:18:03;14.97;;;7.17;;
14040;SDS011;7095;51.388;6.196;2022-10-28T01:23:47;14.97;;;6.17;;
14040;SDS011;7095;51.388;6.196;2022-10-28T01:26:33;16.10;;;7.10;;
14040;SDS011;7095;51.388;6.196;2022-10-28T01:29:32;12.87;;;6.47;;
14040;SDS011;7095;51.388;6.196;2022-10-28T01:32:15;16.07;;;6.67;;
14040;SDS011;7095;51.388;6.196;2022-10-28T01:34:53;20.20;;;7.13;;
14040;SDS011;7095;51.388;6.196;2022-10-28T01:37:29;19.80;;;7.60;;
14040;SDS011;7095;51.388;6.196;2022-10-28T01:40:03;16.50;;;7.10;;
14040;SDS011;7095;51.388;6.196;2022-10-28T01:42:37;14.63;;;7.00;;
14040;SDS011;7095;51.388;6.196;2022-10-28T01:45:13;13.43;;;7.00;;
14040;SDS011;7095;51.388;6.196;2022-10-28T01:47:48;16.60;;;7.20;;
14040;SDS011;7095;51.388;6.196;2022-10-28T01:50:24;14.13;;;7.37;;
14040;SDS011;7095;51.388;6.196;2022-10-28T01:52:59;12.40;;;6.93;;
14040;SDS011;7095;51.388;6.196;2022-10-28T01:55:32;11.30;;;7.10;;
14040;SDS011;7095;51.388;6.196;2022-10-28T01:58:04;16.70;;;7.47;;
14040;SDS011;7095;51.388;6.196;2022-10-28T02:00:34;15.43;;;7.37;;
14040;SDS011;7095;51.388;6.196;2022-10-28T02:03:06;14.73;;;6.93;;
14040;SDS011;7095;51.388;6.196;2022-10-28T02:05:37;17.77;;;7.90;;
14040;SDS011;7095;51.388;6.196;2022-10-28T02:08:15;17.13;;;6.73;;
14040;SDS011;7095;51.388;6.196;2022-10-28T02:11:03;14.17;;;7.70;;
14040;SDS011;7095;51.388;6.196;2022-10-28T02:13:46;15.40;;;7.60;;
14040;SDS011;7095;51.388;6.196;2022-10-28T02:16:22;17.37;;;8.23;;
14040;SDS011;7095;51.388;6.196;2022-10-28T02:19:00;21.27;;;7.10;;
14040;SDS011;7095;51.388;6.196;2022-10-28T02:21:38;13.47;;;7.17;;
14040;SDS011;7095;51.388;6.196;2022-10-28T02:24:17;13.97;;;7.70;;
14040;SDS011;7095;51.388;6.196;2022-10-28T02:26:50;16.93;;;7.30;;
14040;SDS011;7095;51.388;6.196;2022-10-28T02:29:23;16.57;;;7.43;;
14040;SDS011;7095;51.388;6.196;2022-10-28T02:31:57;14.80;;;7.43;;
14040;SDS011;7095;51.388;6.196;2022-10-28T02:34:32;13.23;;;7.23;;
14040;SDS011;7095;51.388;6.196;2022-10-28T02:37:07;15.10;;;7.13;;
14040;SDS011;7095;51.388;6.196;2022-10-28T02:39:41;16.70;;;7.80;;
14040;SDS011;7095;51.388;6.196;2022-10-28T02:42:13;18.67;;;8.13;;
14040;SDS011;7095;51.388;6.196;2022-10-28T02:44:46;18.60;;;7.30;;
14040;SDS011;7095;51.388;6.196;2022-10-28T02:47:20;13.83;;;6.90;;
14040;SDS011;7095;51.388;6.196;2022-10-28T02:49:56;19.43;;;8.57;;
14040;SDS011;7095;51.388;6.196;2022-10-28T02:52:28;15.23;;;7.70;;
14040;SDS011;7095;51.388;6.196;2022-10-28T02:54:59;15.03;;;7.53;;
14040;SDS011;7095;51.388;6.196;2022-10-28T02:57:31;16.97;;;6.80;;
14040;SDS011;7095;51.388;6.196;2022-10-28T03:00:05;15.90;;;7.13;;
14040;SDS011;7095;51.388;6.196;2022-10-28T03:02:35;16.33;;;7.60;;
14040;SDS011;7095;51.388;6.196;2022-10-28T03:05:05;16.67;;;8.43;;
14040;SDS011;7095;51.388;6.196;2022-10-28T03:07:34;13.20;;;7.10;;
14040;SDS011;7095;51.388;6.196;2022-10-28T03:10:03;22.97;;;8.90;;
14040;SDS011;7095;51.388;6.196;2022-10-28T03:12:32;20.10;;;7.67;;
14040;SDS011;7095;51.388;6.196;2022-10-28T03:15:00;20.27;;;7.77;;
14040;SDS011;7095;51.388;6.196;2022-10-28T03:17:29;19.70;;;7.97;;
14040;SDS011;7095;51.388;6.196;2022-10-28T03:19:58;11.97;;;6.73;;
14040;SDS011;7095;51.388;6.196;2022-10-28T03:22:27;21.67;;;7.77;;
14040;SDS011;7095;51.388;6.196;2022-10-28T03:24:58;13.67;;;7.17;;
14040;SDS011;7095;51.388;6.196;2022-10-28T03:27:27;25.13;;;7.47;;
14040;SDS011;7095;51.388;6.196;2022-10-28T03:29:55;17.23;;;7.70;;
14040;SDS011;7095;51.388;6.196;2022-10-28T03:32:23;13.47;;;6.90;;
14040;SDS011;7095;51.388;6.196;2022-10-28T03:34:52;18.23;;;7.40;;
14040;SDS011;7095;51.388;6.196;2022-10-28T03:37:22;34.03;;;7.57;;
14040;SDS011;7095;51.388;6.196;2022-10-28T03:39:52;19.93;;;8.07;;
14040;SDS011;7095;51.388;6.196;2022-10-28T03:42:20;18.40;;;8.07;;
14040;SDS011;7095;51.388;6.196;2022-10-28T03:44:48;17.50;;;7.40;;
14040;SDS011;7095;51.388;6.196;2022-10-28T03:47:17;17.73;;;7.10;;
14040;SDS011;7095;51.388;6.196;2022-10-28T03:49:48;21.70;;;7.40;;
14040;SDS011;7095;51.388;6.196;2022-10-28T03:52:17;22.30;;;7.60;;
14040;SDS011;7095;51.388;6.196;2022-10-28T03:54:45;15.63;;;7.17;;
14040;SDS011;7095;51.388;6.196;2022-10-28T03:57:15;15.07;;;7.07;;
14040;SDS011;7095;51.388;6.196;2022-10-28T03:59:44;15.20;;;7.20;;
14040;SDS011;7095;51.388;6.196;2022-10-28T04:02:12;20.73;;;6.80;;
14040;SDS011;7095;51.388;6.196;2022-10-28T04:04:41;15.83;;;6.83;;
14040;SDS011;7095;51.388;6.196;2022-10-28T04:07:09;17.90;;;7.93;;
14040;SDS011;7095;51.388;6.196;2022-10-28T04:09:38;18.97;;;7.00;;
14040;SDS011;7095;51.388;6.196;2022-10-28T04:12:08;19.37;;;6.70;;
14040;SDS011;7095;51.388;6.196;2022-10-28T04:14:39;17.23;;;7.10;;
14040;SDS011;7095;51.388;6.196;2022-10-28T04:17:07;15.07;;;6.37;;
14040;SDS011;7095;51.388;6.196;2022-10-28T04:19:35;17.40;;;6.97;;
14040;SDS011;7095;51.388;6.196;2022-10-28T04:22:04;17.90;;;6.53;;
14040;SDS011;7095;51.388;6.196;2022-10-28T04:24:36;22.80;;;8.20;;
14040;SDS011;7095;51.388;6.196;2022-10-28T04:27:04;20.63;;;7.03;;
14040;SDS011;7095;51.388;6.196;2022-10-28T04:29:33;17.73;;;7.97;;
14040;SDS011;7095;51.388;6.196;2022-10-28T04:32:03;21.57;;;7.97;;
14040;SDS011;7095;51.388;6.196;2022-10-28T04:34:31;10.63;;;6.47;;
14040;SDS011;7095;51.388;6.196;2022-10-28T04:37:00;21.10;;;7.20;;
14040;SDS011;7095;51.388;6.196;2022-10-28T04:39:31;18.63;;;6.87;;
14040;SDS011;7095;51.388;6.196;2022-10-28T04:42:00;19.20;;;7.30;;
14040;SDS011;7095;51.388;6.196;2022-10-28T04:44:28;19.47;;;6.73;;
14040;SDS011;7095;51.388;6.196;2022-10-28T04:46:57;17.40;;;7.63;;
14040;SDS011;7095;51.388;6.196;2022-10-28T04:49:26;19.27;;;6.87;;
14040;SDS011;7095;51.388;6.196;2022-10-28T04:51:55;20.47;;;6.90;;
14040;SDS011;7095;51.388;6.196;2022-10-28T04:54:23;20.47;;;7.63;;
14040;SDS011;7095;51.388;6.196;2022-10-28T04:56:53;17.23;;;7.07;;
14040;SDS011;7095;51.388;6.196;2022-10-28T04:59:22;15.17;;;6.50;;
14040;SDS011;7095;51.388;6.196;2022-10-28T05:01:50;18.37;;;7.23;;
14040;SDS011;7095;51.388;6.196;2022-10-28T05:04:18;20.63;;;7.13;;
14040;SDS011;7095;51.388;6.196;2022-10-28T05:06:48;23.57;;;7.90;;
14040;SDS011;7095;51.388;6.196;2022-10-28T05:09:17;20.83;;;6.73;;
14040;SDS011;7095;51.388;6.196;2022-10-28T05:11:45;23.77;;;7.23;;
14040;SDS011;7095;51.388;6.196;2022-10-28T05:14:13;14.20;;;6.87;;
14040;SDS011;7095;51.388;6.196;2022-10-28T05:16:42;20.23;;;7.80;;
14040;SDS011;7095;51.388;6.196;2022-10-28T05:19:10;27.37;;;7.50;;
14040;SDS011;7095;51.388;6.196;2022-10-28T05:21:39;22.37;;;8.53;;
14040;SDS011;7095;51.388;6.196;2022-10-28T05:24:08;21.23;;;8.07;;
14040;SDS011;7095;51.388;6.196;2022-10-28T05:26:37;22.27;;;7.50;;
14040;SDS011;7095;51.388;6.196;2022-10-28T05:29:05;19.30;;;8.30;;
14040;SDS011;7095;51.388;6.196;2022-10-28T05:31:34;22.37;;;7.60;;
14040;SDS011;7095;51.388;6.196;2022-10-28T05:34:03;18.47;;;7.03;;
14040;SDS011;7095;51.388;6.196;2022-10-28T05:36:31;19.60;;;7.50;;
14040;SDS011;7095;51.388;6.196;2022-10-28T05:38:59;18.00;;;7.73;;
14040;SDS011;7095;51.388;6.196;2022-10-28T05:41:29;20.70;;;8.37;;
14040;SDS011;7095;51.388;6.196;2022-10-28T05:44:04;17.83;;;7.17;;
14040;SDS011;7095;51.388;6.196;2022-10-28T05:46:33;18.20;;;7.70;;
14040;SDS011;7095;51.388;6.196;2022-10-28T05:49:01;20.37;;;7.43;;
14040;SDS011;7095;51.388;6.196;2022-10-28T05:51:30;23.23;;;7.67;;
14040;SDS011;7095;51.388;6.196;2022-10-28T05:53:58;16.43;;;6.90;;
14040;SDS011;7095;51.388;6.196;2022-10-28T05:56:27;16.93;;;8.20;;
14040;SDS011;7095;51.388;6.196;2022-10-28T05:58:56;22.40;;;7.53;;
14040;SDS011;7095;51.388;6.196;2022-10-28T06:01:25;19.13;;;7.47;;
14040;SDS011;7095;51.388;6.196;2022-10-28T06:03:54;15.37;;;7.43;;
14040;SDS011;7095;51.388;6.196;2022-10-28T06:06:22;22.43;;;7.33;;
14040;SDS011;7095;51.388;6.196;2022-10-28T06:08:51;18.97;;;7.57;;
14040;SDS011;7095;51.388;6.196;2022-10-28T06:11:19;23.40;;;8.67;;
14040;SDS011;7095;51.388;6.196;2022-10-28T06:13:49;28.00;;;8.47;;
14040;SDS011;7095;51.388;6.196;2022-10-28T06:16:17;23.27;;;8.93;;
14040;SDS011;7095;51.388;6.196;2022-10-28T06:18:46;22.33;;;8.57;;
14040;SDS011;7095;51.388;6.196;2022-10-28T06:21:14;16.47;;;7.60;;
14040;SDS011;7095;51.388;6.196;2022-10-28T06:23:43;17.03;;;7.60;;
14040;SDS011;7095;51.388;6.196;2022-10-28T06:26:13;19.50;;;9.00;;
14040;SDS011;7095;51.388;6.196;2022-10-28T06:28:42;24.67;;;7.97;;
14040;SDS011;7095;51.388;6.196;2022-10-28T06:31:14;16.43;;;8.03;;
14040;SDS011;7095;51.388;6.196;2022-10-28T06:33:43;20.60;;;8.00;;
14040;SDS011;7095;51.388;6.196;2022-10-28T06:36:12;15.67;;;7.67;;
14040;SDS011;7095;51.388;6.196;2022-10-28T06:38:41;23.07;;;8.60;;
14040;SDS011;7095;51.388;6.196;2022-10-28T06:41:09;17.87;;;8.03;;
14040;SDS011;7095;51.388;6.196;2022-10-28T06:43:38;24.50;;;8.93;;
14040;SDS011;7095;51.388;6.196;2022-10-28T06:46:06;23.20;;;8.77;;
14040;SDS011;7095;51.388;6.196;2022-10-28T06:48:36;20.03;;;7.93;;
14040;SDS011;7095;51.388;6.196;2022-10-28T06:51:05;22.00;;;8.50;;
14040;SDS011;7095;51.388;6.196;2022-10-28T06:53:33;21.47;;;8.20;;
14040;SDS011;7095;51.388;6.196;2022-10-28T06:56:02;15.07;;;7.57;;
14040;SDS011;7095;51.388;6.196;2022-10-28T06:58:30;27.07;;;7.80;;
14040;SDS011;7095;51.388;6.196;2022-10-28T07:01:01;21.47;;;7.40;;
14040;SDS011;7095;51.388;6.196;2022-10-28T07:03:31;13.93;;;8.07;;
14040;SDS011;7095;51.388;6.196;2022-10-28T07:06:01;19.70;;;8.50;;
14040;SDS011;7095;51.388;6.196;2022-10-28T07:08:29;15.77;;;7.67;;
14040;SDS011;7095;51.388;6.196;2022-10-28T07:10:58;13.53;;;7.23;;
14040;SDS011;7095;51.388;6.196;2022-10-28T07:13:28;19.47;;;7.80;;
14040;SDS011;7095;51.388;6.196;2022-10-28T07:15:57;17.40;;;7.77;;
14040;SDS011;7095;51.388;6.196;2022-10-28T07:18:27;17.70;;;8.00;;
14040;SDS011;7095;51.388;6.196;2022-10-28T07:20:57;18.90;;;8.17;;
14040;SDS011;7095;51.388;6.196;2022-10-28T07:23:27;20.37;;;8.07;;
14040;SDS011;7095;51.388;6.196;2022-10-28T07:25:57;23.97;;;8.93;;
14040;SDS011;7095;51.388;6.196;2022-10-28T07:28:25;16.87;;;8.03;;
14040;SDS011;7095;51.388;6.196;2022-10-28T07:30:58;18.37;;;8.10;;
14040;SDS011;7095;51.388;6.196;2022-10-28T07:33:28;25.90;;;8.87;;
14040;SDS011;7095;51.388;6.196;2022-10-28T07:35:57;21.70;;;8.77;;
14040;SDS011;7095;51.388;6.196;2022-10-28T07:38:27;22.00;;;8.50;;
14040;SDS011;7095;51.388;6.196;2022-10-28T07:40:55;20.67;;;7.93;;
14040;SDS011;7095;51.388;6.196;2022-10-28T07:43:24;20.63;;;7.80;;
14040;SDS011;7095;51.388;6.196;2022-10-28T07:45:56;18.37;;;7.37;;
14040;SDS011;7095;51.388;6.196;2022-10-28T07:48:25;20.13;;;7.63;;
14040;SDS011;7095;51.388;6.196;2022-10-28T07:50:53;17.47;;;8.00;;
14040;SDS011;7095;51.388;6.196;2022-10-28T07:53:21;17.07;;;7.40;;
14040;SDS011;7095;51.388;6.196;2022-10-28T07:55:56;17.97;;;7.93;;
14040;SDS011;7095;51.388;6.196;2022-10-28T07:58:26;16.23;;;7.17;;
14040;SDS011;7095;51.388;6.196;2022-10-28T08:01:00;19.03;;;7.67;;
14040;SDS011;7095;51.388;6.196;2022-10-28T08:03:29;23.93;;;8.77;;
14040;SDS011;7095;51.388;6.196;2022-10-28T08:06:05;19.90;;;7.90;;
14040;SDS011;7095;51.388;6.196;2022-10-28T08:08:39;16.30;;;7.53;;
14040;SDS011;7095;51.388;6.196;2022-10-28T08:11:09;20.83;;;8.07;;
14040;SDS011;7095;51.388;6.196;2022-10-28T08:13:39;22.97;;;7.90;;
14040;SDS011;7095;51.388;6.196;2022-10-28T08:16:07;25.37;;;7.97;;
14040;SDS011;7095;51.388;6.196;2022-10-28T08:18:36;20.10;;;6.60;;
14040;SDS011;7095;51.388;6.196;2022-10-28T08:21:07;15.80;;;7.13;;
14040;SDS011;7095;51.388;6.196;2022-10-28T08:23:37;20.40;;;7.50;;
14040;SDS011;7095;51.388;6.196;2022-10-28T08:26:07;20.53;;;7.63;;
14040;SDS011;7095;51.388;6.196;2022-10-28T08:28:37;24.17;;;7.93;;
14040;SDS011;7095;51.388;6.196;2022-10-28T08:31:05;15.93;;;7.57;;
14040;SDS011;7095;51.388;6.196;2022-10-28T08:33:36;24.30;;;8.07;;
14040;SDS011;7095;51.388;6.196;2022-10-28T08:36:05;16.47;;;7.27;;
14040;SDS011;7095;51.388;6.196;2022-10-28T08:38:35;18.50;;;7.57;;
14040;SDS011;7095;51.388;6.196;2022-10-28T08:41:16;21.47;;;7.53;;
14040;SDS011;7095;51.388;6.196;2022-10-28T08:43:55;17.80;;;7.03;;
14040;SDS011;7095;51.388;6.196;2022-10-28T08:46:46;20.73;;;7.07;;
14040;SDS011;7095;51.388;6.196;2022-10-28T08:49:26;18.33;;;6.50;;
14040;SDS011;7095;51.388;6.196;2022-10-28T08:51:59;14.57;;;6.87;;
14040;SDS011;7095;51.388;6.196;2022-10-28T08:54:33;18.60;;;7.47;;
14040;SDS011;7095;51.388;6.196;2022-10-28T08:57:09;18.87;;;6.53;;
14040;SDS011;7095;51.388;6.196;2022-10-28T08:59:45;17.40;;;6.73;;
14040;SDS011;7095;51.388;6.196;2022-10-28T09:02:19;21.20;;;7.27;;
14040;SDS011;7095;51.388;6.196;2022-10-28T09:04:50;17.67;;;6.07;;
14040;SDS011;7095;51.388;6.196;2022-10-28T09:07:23;19.33;;;6.77;;
14040;SDS011;7095;51.388;6.196;2022-10-28T09:09:52;21.03;;;7.47;;
14040;SDS011;7095;51.388;6.196;2022-10-28T09:12:24;16.60;;;6.27;;
14040;SDS011;7095;51.388;6.196;2022-10-28T09:15:14;18.13;;;6.23;;
14040;SDS011;7095;51.388;6.196;2022-10-28T09:17:52;15.30;;;6.37;;
14040;SDS011;7095;51.388;6.196;2022-10-28T09:20:27;20.13;;;7.83;;
14040;SDS011;7095;51.388;6.196;2022-10-28T09:23:08;20.87;;;6.50;;
14040;SDS011;7095;51.388;6.196;2022-10-28T09:25:45;16.97;;;6.20;;
14040;SDS011;7095;51.388;6.196;2022-10-28T09:28:26;15.87;;;5.97;;
14040;SDS011;7095;51.388;6.196;2022-10-28T09:31:07;15.47;;;6.30;;
14040;SDS011;7095;51.388;6.196;2022-10-28T09:33:46;23.53;;;7.60;;
14040;SDS011;7095;51.388;6.196;2022-10-28T09:36:27;16.60;;;6.20;;
14040;SDS011;7095;51.388;6.196;2022-10-28T09:39:00;19.53;;;6.37;;
14040;SDS011;7095;51.388;6.196;2022-10-28T09:41:32;18.83;;;6.63;;
14040;SDS011;7095;51.388;6.196;2022-10-28T09:44:05;18.90;;;6.87;;
14040;SDS011;7095;51.388;6.196;2022-10-28T09:46:42;16.40;;;6.90;;
14040;SDS011;7095;51.388;6.196;2022-10-28T09:49:14;16.30;;;6.17;;
14040;SDS011;7095;51.388;6.196;2022-10-28T09:51:49;20.10;;;6.37;;
14040;SDS011;7095;51.388;6.196;2022-10-28T09:54:20;19.97;;;5.40;;
14040;SDS011;7095;51.388;6.196;2022-10-28T09:56:56;18.60;;;6.07;;
14040;SDS011;7095;51.388;6.196;2022-10-28T09:59:25;19.13;;;6.33;;
14040;SDS011;7095;51.388;6.196;2022-10-28T10:01:55;19.43;;;6.10;;
14040;SDS011;7095;51.388;6.196;2022-10-28T10:04:24;26.60;;;7.13;;
14040;SDS011;7095;51.388;6.196;2022-10-28T10:06:57;16.77;;;5.83;;
14040;SDS011;7095;51.388;6.196;2022-10-28T10:09:31;14.97;;;6.10;;
14040;SDS011;7095;51.388;6.196;2022-10-28T10:12:01;15.17;;;6.57;;
14040;SDS011;7095;51.388;6.196;2022-10-28T10:14:34;18.63;;;6.40;;
14040;SDS011;7095;51.388;6.196;2022-10-28T10:17:11;21.70;;;6.30;;
14040;SDS011;7095;51.388;6.196;2022-10-28T10:22:32;21.93;;;7.37;;
14040;SDS011;7095;51.388;6.196;2022-10-28T10:25:03;17.00;;;6.40;;
14040;SDS011;7095;51.388;6.196;2022-10-28T10:27:48;20.97;;;5.97;;
14040;SDS011;7095;51.388;6.196;2022-10-28T10:30:20;22.57;;;6.57;;
14040;SDS011;7095;51.388;6.196;2022-10-28T10:32:52;16.40;;;7.07;;
14040;SDS011;7095;51.388;6.196;2022-10-28T10:35:23;18.20;;;5.97;;
14040;SDS011;7095;51.388;6.196;2022-10-28T10:37:54;19.63;;;6.57;;
14040;SDS011;7095;51.388;6.196;2022-10-28T10:40:25;20.60;;;6.20;;
14040;SDS011;7095;51.388;6.196;2022-10-28T10:43:17;20.63;;;6.33;;
14040;SDS011;7095;51.388;6.196;2022-10-28T10:45:50;19.43;;;6.40;;
14040;SDS011;7095;51.388;6.196;2022-10-28T10:48:21;15.63;;;5.77;;
14040;SDS011;7095;51.388;6.196;2022-10-28T10:50:49;16.80;;;5.97;;
14040;SDS011;7095;51.388;6.196;2022-10-28T10:53:20;20.83;;;5.90;;
14040;SDS011;7095;51.388;6.196;2022-10-28T10:55:52;18.50;;;5.93;;
14040;SDS011;7095;51.388;6.196;2022-10-28T10:58:23;16.90;;;5.50;;
14040;SDS011;7095;51.388;6.196;2022-10-28T11:00:53;18.47;;;5.77;;
14040;SDS011;7095;51.388;6.196;2022-10-28T11:03:26;21.67;;;5.80;;
14040;SDS011;7095;51.388;6.196;2022-10-28T11:05:57;16.70;;;5.90;;
14040;SDS011;7095;51.388;6.196;2022-10-28T11:08:47;15.77;;;5.70;;
14040;SDS011;7095;51.388;6.196;2022-10-28T11:11:17;22.73;;;6.20;;
14040;SDS011;7095;51.388;6.196;2022-10-28T11:13:48;20.90;;;6.87;;
14040;SDS011;7095;51.388;6.196;2022-10-28T11:16:30;19.33;;;6.33;;
14040;SDS011;7095;51.388;6.196;2022-10-28T11:19:00;15.40;;;6.23;;
14040;SDS011;7095;51.388;6.196;2022-10-28T11:21:45;24.80;;;5.90;;
14040;SDS011;7095;51.388;6.196;2022-10-28T11:24:38;19.87;;;6.50;;
14040;SDS011;7095;51.388;6.196;2022-10-28T11:27:21;18.23;;;5.57;;
14040;SDS011;7095;51.388;6.196;2022-10-28T11:30:00;19.47;;;6.13;;
14040;SDS011;7095;51.388;6.196;2022-10-28T11:32:33;16.87;;;5.60;;
14040;SDS011;7095;51.388;6.196;2022-10-28T11:35:37;15.33;;;5.70;;
14040;SDS011;7095;51.388;6.196;2022-10-28T11:38:18;17.03;;;5.53;;
14040;SDS011;7095;51.388;6.196;2022-10-28T11:41:06;19.30;;;5.83;;
14040;SDS011;7095;51.388;6.196;2022-10-28T11:43:45;17.33;;;5.67;;
14040;SDS011;7095;51.388;6.196;2022-10-28T11:46:26;17.67;;;5.63;;
14040;SDS011;7095;51.388;6.196;2022-10-28T11:49:08;27.17;;;5.27;;
14040;SDS011;7095;51.388;6.196;2022-10-28T11:52:03;19.83;;;5.37;;
14040;SDS011;7095;51.388;6.196;2022-10-28T11:54:44;19.73;;;5.70;;
14040;SDS011;7095;51.388;6.196;2022-10-28T11:57:26;16.10;;;4.70;;
14040;SDS011;7095;51.388;6.196;2022-10-28T12:00:13;20.87;;;5.80;;
14040;SDS011;7095;51.388;6.196;2022-10-28T12:02:59;23.73;;;5.97;;
14040;SDS011;7095;51.388;6.196;2022-10-28T12:05:40;12.63;;;4.50;;
14040;SDS011;7095;51.388;6.196;2022-10-28T12:08:18;18.57;;;5.67;;
14040;SDS011;7095;51.388;6.196;2022-10-28T12:11:02;25.33;;;5.60;;
14040;SDS011;7095;51.388;6.196;2022-10-28T12:13:42;21.30;;;5.50;;
14040;SDS011;7095;51.388;6.196;2022-10-28T12:16:21;23.87;;;4.90;;
14040;SDS011;7095;51.388;6.196;2022-10-28T12:18:58;22.63;;;5.97;;
14040;SDS011;7095;51.388;6.196;2022-10-28T12:21:33;22.00;;;5.93;;
14040;SDS011;7095;51.388;6.196;2022-10-28T12:24:08;20.63;;;4.93;;
14040;SDS011;7095;51.388;6.196;2022-10-28T12:26:42;21.60;;;5.37;;
14040;SDS011;7095;51.388;6.196;2022-10-28T12:29:15;18.43;;;5.63;;
14040;SDS011;7095;51.388;6.196;2022-10-28T12:31:50;16.07;;;4.60;;
14040;SDS011;7095;51.388;6.196;2022-10-28T12:34:24;22.13;;;5.20;;
14040;SDS011;7095;51.388;6.196;2022-10-28T12:37:01;17.13;;;5.17;;
14040;SDS011;7095;51.388;6.196;2022-10-28T12:39:36;18.27;;;4.93;;
14040;SDS011;7095;51.388;6.196;2022-10-28T12:42:10;21.57;;;5.77;;
14040;SDS011;7095;51.388;6.196;2022-10-28T12:44:42;17.50;;;5.30;;
14040;SDS011;7095;51.388;6.196;2022-10-28T12:47:18;15.97;;;4.80;;
14040;SDS011;7095;51.388;6.196;2022-10-28T12:50:04;16.77;;;4.93;;
14040;SDS011;7095;51.388;6.196;2022-10-28T12:52:43;22.87;;;4.60;;
14040;SDS011;7095;51.388;6.196;2022-10-28T12:55:23;17.23;;;4.73;;
14040;SDS011;7095;51.388;6.196;2022-10-28T12:57:57;25.20;;;5.03;;
14040;SDS011;7095;51.388;6.196;2022-10-28T13:00:30;19.43;;;4.53;;
14040;SDS011;7095;51.388;6.196;2022-10-28T13:03:03;13.37;;;5.07;;
14040;SDS011;7095;51.388;6.196;2022-10-28T13:05:40;17.03;;;4.67;;
14040;SDS011;7095;51.388;6.196;2022-10-28T13:08:33;12.63;;;4.47;;
14040;SDS011;7095;51.388;6.196;2022-10-28T13:14:57;20.70;;;4.93;;
14040;SDS011;7095;51.388;6.196;2022-10-28T13:17:41;15.43;;;4.30;;
14040;SDS011;7095;51.388;6.196;2022-10-28T13:20:18;12.80;;;4.90;;
14040;SDS011;7095;51.388;6.196;2022-10-28T13:22:59;21.50;;;5.23;;
14040;SDS011;7095;51.388;6.196;2022-10-28T13:28:29;15.50;;;4.30;;
14040;SDS011;7095;51.388;6.196;2022-10-28T13:31:02;15.10;;;5.83;;
14040;SDS011;7095;51.388;6.196;2022-10-28T13:33:33;19.03;;;4.50;;
14040;SDS011;7095;51.388;6.196;2022-10-28T13:36:08;18.23;;;4.73;;
14040;SDS011;7095;51.388;6.196;2022-10-28T13:38:47;16.77;;;4.80;;
14040;SDS011;7095;51.388;6.196;2022-10-28T13:41:32;16.37;;;4.40;;
14040;SDS011;7095;51.388;6.196;2022-10-28T13:44:21;19.50;;;4.60;;
14040;SDS011;7095;51.388;6.196;2022-10-28T13:47:04;17.00;;;4.90;;
14040;SDS011;7095;51.388;6.196;2022-10-28T13:56:15;16.57;;;4.63;;
14040;SDS011;7095;51.388;6.196;2022-10-28T13:58:50;19.87;;;4.50;;
14040;SDS011;7095;51.388;6.196;2022-10-28T14:04:41;18.90;;;4.73;;
14040;SDS011;7095;51.388;6.196;2022-10-28T14:07:20;20.37;;;4.67;;
14040;SDS011;7095;51.388;6.196;2022-10-28T14:09:55;23.63;;;4.67;;
14040;SDS011;7095;51.388;6.196;2022-10-28T14:12:27;16.67;;;4.30;;
14040;SDS011;7095;51.388;6.196;2022-10-28T14:15:02;15.43;;;4.50;;
14040;SDS011;7095;51.388;6.196;2022-10-28T14:17:35;21.23;;;6.07;;
14040;SDS011;7095;51.388;6.196;2022-10-28T14:20:18;18.67;;;4.60;;
14040;SDS011;7095;51.388;6.196;2022-10-28T14:22:52;18.70;;;5.77;;
14040;SDS011;7095;51.388;6.196;2022-10-28T14:31:41;23.20;;;4.97;;
14040;SDS011;7095;51.388;6.196;2022-10-28T14:37:04;22.47;;;5.27;;
14040;SDS011;7095;51.388;6.196;2022-10-28T14:40:00;19.37;;;4.70;;
14040;SDS011;7095;51.388;6.196;2022-10-28T14:42:42;14.43;;;4.53;;
14040;SDS011;7095;51.388;6.196;2022-10-28T14:45:25;17.17;;;4.60;;
14040;SDS011;7095;51.388;6.196;2022-10-28T14:48:14;15.97;;;4.90;;
14040;SDS011;7095;51.388;6.196;2022-10-28T14:50:58;20.17;;;5.67;;
14040;SDS011;7095;51.388;6.196;2022-10-28T14:53:32;21.33;;;5.40;;
14040;SDS011;7095;51.388;6.196;2022-10-28T14:56:05;18.73;;;5.07;;
14040;SDS011;7095;51.388;6.196;2022-10-28T14:58:38;14.40;;;4.73;;
14040;SDS011;7095;51.388;6.196;2022-10-28T15:04:02;18.27;;;5.33;;
14040;SDS011;7095;51.388;6.196;2022-10-28T15:06:39;15.30;;;4.97;;
14040;SDS011;7095;51.388;6.196;2022-10-28T15:09:15;18.20;;;5.37;;
14040;SDS011;7095;51.388;6.196;2022-10-28T15:11:47;23.90;;;5.97;;
14040;SDS011;7095;51.388;6.196;2022-10-28T15:14:25;13.73;;;4.90;;
14040;SDS011;7095;51.388;6.196;2022-10-28T15:16:56;18.33;;;5.37;;
14040;SDS011;7095;51.388;6.196;2022-10-28T15:19:27;26.57;;;6.77;;
14040;SDS011;7095;51.388;6.196;2022-10-28T15:22:01;22.20;;;5.27;;
14040;SDS011;7095;51.388;6.196;2022-10-28T15:24:32;22.73;;;5.47;;
14040;SDS011;7095;51.388;6.196;2022-10-28T15:27:01;16.97;;;5.67;;
14040;SDS011;7095;51.388;6.196;2022-10-28T15:29:30;27.40;;;6.03;;
14040;SDS011;7095;51.388;6.196;2022-10-28T15:32:02;21.60;;;4.90;;
14040;SDS011;7095;51.388;6.196;2022-10-28T15:34:37;16.10;;;5.00;;
14040;SDS011;7095;51.388;6.196;2022-10-28T15:37:05;20.30;;;5.63;;
14040;SDS011;7095;51.388;6.196;2022-10-28T15:39:36;18.93;;;5.17;;
14040;SDS011;7095;51.388;6.196;2022-10-28T15:42:25;17.43;;;5.77;;
14040;SDS011;7095;51.388;6.196;2022-10-28T15:45:03;12.40;;;5.10;;
14040;SDS011;7095;51.388;6.196;2022-10-28T15:47:33;15.30;;;5.10;;
14040;SDS011;7095;51.388;6.196;2022-10-28T15:50:20;22.47;;;5.87;;
14040;SDS011;7095;51.388;6.196;2022-10-28T15:52:52;13.60;;;4.93;;
14040;SDS011;7095;51.388;6.196;2022-10-28T15:55:43;21.27;;;5.10;;
14040;SDS011;7095;51.388;6.196;2022-10-28T15:58:34;21.10;;;4.97;;
14040;SDS011;7095;51.388;6.196;2022-10-28T16:01:07;17.93;;;5.87;;
14040;SDS011;7095;51.388;6.196;2022-10-28T16:03:40;14.30;;;5.63;;